sensor_id;sensor_type;location;lat;lon;timestamp;pressure;altitude;pressure_sealevel;temperature;humidity
75497;BME280;64074;47.540;19.072;2023-05-29T00:02:58;100513.66;;;17.10;53.83
75497;BME280;64074;47.540;19.072;2023-05-29T00:06:08;100530.75;;;17.07;54.43
75497;BME280;64074;47.540;19.072;2023-05-29T00:09:12;100519.84;;;16.99;54.75
75497;BME280;64074;47.540;19.072;2023-05-29T00:12:18;100518.59;;;17.17;54.94
75497;BME280;64074;47.540;19.072;2023-05-29T00:15:22;100518.38;;;17.22;54.58
75497;BME280;64074;47.540;19.072;2023-05-29T00:18:32;100520.44;;;17.25;53.98
75497;BME280;64074;47.540;19.072;2023-05-29T00:21:58;100510.38;;;16.96;53.73
75497;BME280;64074;47.540;19.072;2023-05-29T00:25:17;100517.03;;;17.07;53.96
75497;BME280;64074;47.540;19.072;2023-05-29T00:28:37;100521.94;;;17.02;54.11
75497;BME280;64074;47.540;19.072;2023-05-29T00:31:57;100522.84;;;16.85;55.81
75497;BME280;64074;47.540;19.072;2023-05-29T00:35:18;100534.91;;;17.13;55.51
75497;BME280;64074;47.540;19.072;2023-05-29T00:38:22;100530.81;;;16.99;55.35
75497;BME280;64074;47.540;19.072;2023-05-29T00:41:27;100524.88;;;16.97;55.16
75497;BME280;64074;47.540;19.072;2023-05-29T00:44:31;100528.41;;;16.97;54.99
75497;BME280;64074;47.540;19.072;2023-05-29T00:47:41;100525.88;;;16.92;54.70
75497;BME280;64074;47.540;19.072;2023-05-29T00:51:12;100514.91;;;16.71;55.22
75497;BME280;64074;47.540;19.072;2023-05-29T00:54:26;100516.97;;;16.74;55.10
75497;BME280;64074;47.540;19.072;2023-05-29T00:57:34;100510.03;;;16.77;55.12
75497;BME280;64074;47.540;19.072;2023-05-29T01:00:41;100507.88;;;16.82;55.15
75497;BME280;64074;47.540;19.072;2023-05-29T01:03:55;100516.50;;;16.72;55.35
75497;BME280;64074;47.540;19.072;2023-05-29T01:07:10;100506.34;;;16.73;55.62
75497;BME280;64074;47.540;19.072;2023-05-29T01:10:19;100506.88;;;16.66;55.73
75497;BME280;64074;47.540;19.072;2023-05-29T01:13:30;100505.00;;;16.79;55.22
75497;BME280;64074;47.540;19.072;2023-05-29T01:16:50;100503.28;;;16.74;55.00
75497;BME280;64074;47.540;19.072;2023-05-29T01:20:11;100502.81;;;16.72;54.86
75497;BME280;64074;47.540;19.072;2023-05-29T01:27:15;100506.41;;;16.85;54.42
75497;BME280;64074;47.540;19.072;2023-05-29T01:30:21;100496.88;;;16.91;53.54
75497;BME280;64074;47.540;19.072;2023-05-29T01:33:33;100496.09;;;16.90;53.35
75497;BME280;64074;47.540;19.072;2023-05-29T01:36:43;100495.16;;;16.86;53.55
75497;BME280;64074;47.540;19.072;2023-05-29T01:40:08;100499.34;;;16.84;53.41
75497;BME280;64074;47.540;19.072;2023-05-29T01:43:30;100495.53;;;16.76;53.55
75497;BME280;64074;47.540;19.072;2023-05-29T01:46:46;100496.19;;;16.73;54.31
75497;BME280;64074;47.540;19.072;2023-05-29T01:49:50;100490.25;;;16.71;54.61
75497;BME280;64074;47.540;19.072;2023-05-29T01:53:00;100484.31;;;16.69;54.47
75497;BME280;64074;47.540;19.072;2023-05-29T01:56:12;100488.38;;;16.54;55.67
75497;BME280;64074;47.540;19.072;2023-05-29T01:59:29;100492.06;;;16.58;56.19
75497;BME280;64074;47.540;19.072;2023-05-29T02:02:43;100485.16;;;16.61;57.07
75497;BME280;64074;47.540;19.072;2023-05-29T02:05:50;100477.41;;;16.63;57.36
75497;BME280;64074;47.540;19.072;2023-05-29T02:09:00;100477.25;;;16.59;57.77
75497;BME280;64074;47.540;19.072;2023-05-29T02:12:16;100479.56;;;16.49;58.86
75497;BME280;64074;47.540;19.072;2023-05-29T02:15:38;100477.84;;;16.44;59.02
75497;BME280;64074;47.540;19.072;2023-05-29T02:18:56;100480.84;;;16.22;59.71
75497;BME280;64074;47.540;19.072;2023-05-29T02:22:12;100481.66;;;15.76;61.81
75497;BME280;64074;47.540;19.072;2023-05-29T02:25:18;100483.75;;;15.79;61.25
75497;BME280;64074;47.540;19.072;2023-05-29T02:28:21;100481.06;;;15.53;61.33
75497;BME280;64074;47.540;19.072;2023-05-29T02:31:24;100476.41;;;15.36;61.44
75497;BME280;64074;47.540;19.072;2023-05-29T02:34:34;100479.13;;;15.36;61.64
75497;BME280;64074;47.540;19.072;2023-05-29T02:38:03;100474.53;;;15.19;61.85
75497;BME280;64074;47.540;19.072;2023-05-29T02:41:11;100471.59;;;15.33;61.24
75497;BME280;64074;47.540;19.072;2023-05-29T02:44:21;100469.16;;;15.49;60.83
75497;BME280;64074;47.540;19.072;2023-05-29T02:47:29;100467.53;;;15.56;60.78
75497;BME280;64074;47.540;19.072;2023-05-29T02:50:36;100458.38;;;15.69;60.75
75497;BME280;64074;47.540;19.072;2023-05-29T02:53:46;100470.56;;;15.81;59.99
75497;BME280;64074;47.540;19.072;2023-05-29T02:57:01;100464.59;;;15.87;59.38
75497;BME280;64074;47.540;19.072;2023-05-29T03:00:15;100463.28;;;15.85;59.13
75497;BME280;64074;47.540;19.072;2023-05-29T03:03:42;100468.13;;;15.88;59.27
75497;BME280;64074;47.540;19.072;2023-05-29T03:06:58;100471.16;;;15.95;58.77
75497;BME280;64074;47.540;19.072;2023-05-29T03:10:04;100470.22;;;15.91;58.50
75497;BME280;64074;47.540;19.072;2023-05-29T03:13:08;100472.16;;;15.82;58.59
75497;BME280;64074;47.540;19.072;2023-05-29T03:16:18;100479.09;;;15.79;59.38
75497;BME280;64074;47.540;19.072;2023-05-29T03:19:21;100472.75;;;15.96;58.95
75497;BME280;64074;47.540;19.072;2023-05-29T03:22:27;100466.81;;;15.94;59.42
75497;BME280;64074;47.540;19.072;2023-05-29T03:25:36;100465.34;;;15.96;59.30
75497;BME280;64074;47.540;19.072;2023-05-29T03:28:43;100470.34;;;15.94;59.81
75497;BME280;64074;47.540;19.072;2023-05-29T03:31:51;100479.34;;;15.95;59.92
75497;BME280;64074;47.540;19.072;2023-05-29T03:35:04;100479.66;;;16.02;60.51
75497;BME280;64074;47.540;19.072;2023-05-29T03:38:13;100485.06;;;16.11;60.19
75497;BME280;64074;47.540;19.072;2023-05-29T03:41:22;100482.34;;;16.11;61.08
75497;BME280;64074;47.540;19.072;2023-05-29T03:44:39;100490.25;;;16.12;61.24
75497;BME280;64074;47.540;19.072;2023-05-29T03:47:50;100500.03;;;16.13;61.07
75497;BME280;64074;47.540;19.072;2023-05-29T03:50:59;100498.28;;;16.09;61.47
75497;BME280;64074;47.540;19.072;2023-05-29T03:54:13;100503.41;;;16.19;61.54
75497;BME280;64074;47.540;19.072;2023-05-29T03:57:15;100508.59;;;16.12;60.96
75497;BME280;64074;47.540;19.072;2023-05-29T04:00:19;100507.88;;;16.23;60.78
75497;BME280;64074;47.540;19.072;2023-05-29T04:03:31;100502.69;;;16.30;60.33
75497;BME280;64074;47.540;19.072;2023-05-29T04:06:51;100508.63;;;16.33;60.66
75497;BME280;64074;47.540;19.072;2023-05-29T04:10:13;100507.16;;;16.35;60.73
75497;BME280;64074;47.540;19.072;2023-05-29T04:13:34;100507.94;;;16.44;60.89
75497;BME280;64074;47.540;19.072;2023-05-29T04:16:47;100508.16;;;16.60;60.12
75497;BME280;64074;47.540;19.072;2023-05-29T04:20:09;100505.25;;;16.65;60.50
75497;BME280;64074;47.540;19.072;2023-05-29T04:23:29;100510.91;;;16.60;59.97
75497;BME280;64074;47.540;19.072;2023-05-29T04:26:46;100515.44;;;16.56;59.87
75497;BME280;64074;47.540;19.072;2023-05-29T04:30:15;100513.63;;;16.69;58.83
75497;BME280;64074;47.540;19.072;2023-05-29T04:33:37;100512.84;;;16.89;58.88
75497;BME280;64074;47.540;19.072;2023-05-29T04:36:48;100515.06;;;16.96;58.78
75497;BME280;64074;47.540;19.072;2023-05-29T04:39:51;100516.91;;;17.04;58.39
75497;BME280;64074;47.540;19.072;2023-05-29T04:43:06;100513.31;;;17.12;58.40
75497;BME280;64074;47.540;19.072;2023-05-29T04:46:27;100521.56;;;16.82;59.44
75497;BME280;64074;47.540;19.072;2023-05-29T04:49:39;100520.41;;;17.13;58.19
75497;BME280;64074;47.540;19.072;2023-05-29T04:53:07;100527.94;;;16.95;59.08
75497;BME280;64074;47.540;19.072;2023-05-29T04:56:41;100518.91;;;17.36;58.10
75497;BME280;64074;47.540;19.072;2023-05-29T04:59:54;100511.38;;;17.12;58.57
75497;BME280;64074;47.540;19.072;2023-05-29T05:03:03;100523.91;;;17.34;58.21
75497;BME280;64074;47.540;19.072;2023-05-29T05:06:07;100519.41;;;17.50;58.29
75497;BME280;64074;47.540;19.072;2023-05-29T05:09:12;100522.41;;;17.58;58.12
75497;BME280;64074;47.540;19.072;2023-05-29T05:12:22;100524.28;;;17.66;56.95
75497;BME280;64074;47.540;19.072;2023-05-29T05:15:43;100526.84;;;17.71;57.10
75497;BME280;64074;47.540;19.072;2023-05-29T05:18:51;100529.34;;;17.43;57.49
75497;BME280;64074;47.540;19.072;2023-05-29T05:21:58;100531.75;;;17.44;57.38
75497;BME280;64074;47.540;19.072;2023-05-29T05:25:08;100532.94;;;17.89;57.13
75497;BME280;64074;47.540;19.072;2023-05-29T05:28:22;100535.25;;;17.99;56.62
75497;BME280;64074;47.540;19.072;2023-05-29T05:31:31;100530.22;;;18.01;55.90
75497;BME280;64074;47.540;19.072;2023-05-29T05:34:34;100534.34;;;18.07;55.29
75497;BME280;64074;47.540;19.072;2023-05-29T05:37:41;100527.59;;;18.04;55.44
75497;BME280;64074;47.540;19.072;2023-05-29T05:40:44;100527.97;;;18.15;55.14
75497;BME280;64074;47.540;19.072;2023-05-29T05:43:58;100533.22;;;18.20;54.71
75497;BME280;64074;47.540;19.072;2023-05-29T05:47:14;100533.41;;;18.03;55.64
75497;BME280;64074;47.540;19.072;2023-05-29T05:50:23;100530.03;;;18.42;54.72
75497;BME280;64074;47.540;19.072;2023-05-29T05:53:40;100533.91;;;18.29;54.84
75497;BME280;64074;47.540;19.072;2023-05-29T05:57:01;100532.31;;;18.28;54.77
75497;BME280;64074;47.540;19.072;2023-05-29T06:00:22;100529.56;;;18.77;53.68
75497;BME280;64074;47.540;19.072;2023-05-29T06:03:37;100540.22;;;18.91;52.98
75497;BME280;64074;47.540;19.072;2023-05-29T06:06:50;100538.22;;;19.03;53.38
75497;BME280;64074;47.540;19.072;2023-05-29T06:10:26;100535.00;;;19.14;52.74
75497;BME280;64074;47.540;19.072;2023-05-29T06:13:53;100538.16;;;19.28;52.38
75497;BME280;64074;47.540;19.072;2023-05-29T06:17:11;100554.28;;;19.42;51.71
75497;BME280;64074;47.540;19.072;2023-05-29T06:20:32;100548.09;;;19.32;52.07
75497;BME280;64074;47.540;19.072;2023-05-29T06:23:42;100549.31;;;19.59;51.91
75497;BME280;64074;47.540;19.072;2023-05-29T06:26:45;100554.34;;;19.85;50.95
75497;BME280;64074;47.540;19.072;2023-05-29T06:29:49;100554.41;;;19.73;50.57
75497;BME280;64074;47.540;19.072;2023-05-29T06:32:53;100547.25;;;20.00;50.83
75497;BME280;64074;47.540;19.072;2023-05-29T06:36:06;100559.34;;;20.11;50.46
75497;BME280;64074;47.540;19.072;2023-05-29T06:39:17;100562.59;;;19.85;51.21
75497;BME280;64074;47.540;19.072;2023-05-29T06:42:25;100562.72;;;20.20;50.13
75497;BME280;64074;47.540;19.072;2023-05-29T06:45:39;100562.72;;;20.36;49.63
75497;BME280;64074;47.540;19.072;2023-05-29T06:49:13;100558.38;;;20.51;49.49
75497;BME280;64074;47.540;19.072;2023-05-29T06:52:37;100548.97;;;20.36;49.88
75497;BME280;64074;47.540;19.072;2023-05-29T06:56:01;100558.25;;;20.32;50.01
75497;BME280;64074;47.540;19.072;2023-05-29T06:59:11;100562.28;;;20.66;49.99
75497;BME280;64074;47.540;19.072;2023-05-29T07:02:39;100557.28;;;20.87;48.84
75497;BME280;64074;47.540;19.072;2023-05-29T07:06:07;100560.47;;;20.89;48.87
75497;BME280;64074;47.540;19.072;2023-05-29T07:09:25;100563.81;;;20.98;49.13
75497;BME280;64074;47.540;19.072;2023-05-29T07:12:47;100566.09;;;21.12;48.55
75497;BME280;64074;47.540;19.072;2023-05-29T07:16:11;100565.44;;;21.18;47.78
75497;BME280;64074;47.540;19.072;2023-05-29T07:19:40;100561.16;;;21.21;48.38
75497;BME280;64074;47.540;19.072;2023-05-29T07:23:02;100561.88;;;21.34;47.88
75497;BME280;64074;47.540;19.072;2023-05-29T07:26:16;100560.19;;;21.68;47.30
75497;BME280;64074;47.540;19.072;2023-05-29T07:29:35;100566.94;;;21.70;46.74
75497;BME280;64074;47.540;19.072;2023-05-29T07:33:01;100574.88;;;22.14;46.63
75497;BME280;64074;47.540;19.072;2023-05-29T07:36:21;100572.28;;;22.48;45.55
75497;BME280;64074;47.540;19.072;2023-05-29T07:39:50;100577.41;;;22.95;45.27
75497;BME280;64074;47.540;19.072;2023-05-29T07:43:19;100586.28;;;23.08;44.45
75497;BME280;64074;47.540;19.072;2023-05-29T07:46:34;100593.47;;;23.42;43.87
75497;BME280;64074;47.540;19.072;2023-05-29T07:50:03;100594.56;;;23.64;42.94
75497;BME280;64074;47.540;19.072;2023-05-29T07:53:13;100597.84;;;23.77;42.72
75497;BME280;64074;47.540;19.072;2023-05-29T07:56:28;100595.81;;;23.70;42.34
75497;BME280;64074;47.540;19.072;2023-05-29T07:59:45;100602.44;;;23.62;41.93
75497;BME280;64074;47.540;19.072;2023-05-29T08:02:56;100595.16;;;23.54;42.31
75497;BME280;64074;47.540;19.072;2023-05-29T08:06:10;100595.38;;;23.38;43.03
75497;BME280;64074;47.540;19.072;2023-05-29T08:09:20;100595.34;;;23.65;42.46
75497;BME280;64074;47.540;19.072;2023-05-29T08:12:40;100591.00;;;23.63;42.34
75497;BME280;64074;47.540;19.072;2023-05-29T08:16:02;100589.28;;;23.25;43.17
75497;BME280;64074;47.540;19.072;2023-05-29T08:19:23;100587.03;;;23.35;43.32
75497;BME280;64074;47.540;19.072;2023-05-29T08:22:45;100581.50;;;23.65;44.10
75497;BME280;64074;47.540;19.072;2023-05-29T08:26:06;100578.41;;;23.10;43.92
75497;BME280;64074;47.540;19.072;2023-05-29T08:29:27;100572.13;;;23.43;43.63
75497;BME280;64074;47.540;19.072;2023-05-29T08:32:48;100571.41;;;23.49;43.15
75497;BME280;64074;47.540;19.072;2023-05-29T08:36:10;100572.09;;;23.73;42.71
75497;BME280;64074;47.540;19.072;2023-05-29T08:39:31;100570.34;;;23.57;42.68
75497;BME280;64074;47.540;19.072;2023-05-29T08:46:22;100562.59;;;24.07;41.76
75497;BME280;64074;47.540;19.072;2023-05-29T08:49:41;100569.59;;;23.98;42.09
75497;BME280;64074;47.540;19.072;2023-05-29T08:52:53;100562.22;;;24.12;41.75
75497;BME280;64074;47.540;19.072;2023-05-29T08:56:16;100561.31;;;24.38;42.33
75497;BME280;64074;47.540;19.072;2023-05-29T08:59:43;100568.91;;;24.08;41.75
75497;BME280;64074;47.540;19.072;2023-05-29T09:03:04;100558.31;;;24.61;41.33
75497;BME280;64074;47.540;19.072;2023-05-29T09:06:26;100563.53;;;24.73;41.05
75497;BME280;64074;47.540;19.072;2023-05-29T09:09:53;100562.88;;;24.94;40.94
75497;BME280;64074;47.540;19.072;2023-05-29T09:13:13;100564.69;;;24.65;40.82
75497;BME280;64074;47.540;19.072;2023-05-29T09:16:41;100568.19;;;24.59;40.69
75497;BME280;64074;47.540;19.072;2023-05-29T09:19:55;100567.22;;;24.92;39.77
75497;BME280;64074;47.540;19.072;2023-05-29T09:23:14;100562.38;;;24.78;40.38
75497;BME280;64074;47.540;19.072;2023-05-29T09:26:17;100565.44;;;24.62;40.82
75497;BME280;64074;47.540;19.072;2023-05-29T09:29:35;100555.59;;;24.72;40.73
75497;BME280;64074;47.540;19.072;2023-05-29T09:32:53;100558.38;;;24.72;40.58
75497;BME280;64074;47.540;19.072;2023-05-29T09:36:26;100562.44;;;24.85;40.69
75497;BME280;64074;47.540;19.072;2023-05-29T09:43:02;100557.19;;;25.38;39.45
75497;BME280;64074;47.540;19.072;2023-05-29T09:46:15;100558.88;;;25.61;38.79
75497;BME280;64074;47.540;19.072;2023-05-29T09:49:31;100561.59;;;25.46;38.80
75497;BME280;64074;47.540;19.072;2023-05-29T09:52:52;100561.53;;;25.29;39.36
75497;BME280;64074;47.540;19.072;2023-05-29T09:56:03;100553.91;;;25.11;38.64
75497;BME280;64074;47.540;19.072;2023-05-29T09:59:26;100560.72;;;24.66;40.45
75497;BME280;64074;47.540;19.072;2023-05-29T10:02:49;100562.72;;;24.69;40.53
75497;BME280;64074;47.540;19.072;2023-05-29T10:06:10;100569.78;;;24.60;40.94
75497;BME280;64074;47.540;19.072;2023-05-29T10:09:27;100571.63;;;24.45;41.16
75497;BME280;64074;47.540;19.072;2023-05-29T10:12:55;100572.59;;;24.63;40.55
75497;BME280;64074;47.540;19.072;2023-05-29T10:16:15;100577.75;;;24.68;40.35
75497;BME280;64074;47.540;19.072;2023-05-29T10:19:39;100575.09;;;24.79;40.63
75497;BME280;64074;47.540;19.072;2023-05-29T10:23:01;100575.44;;;24.77;40.65
75497;BME280;64074;47.540;19.072;2023-05-29T10:26:15;100576.78;;;24.98;40.31
75497;BME280;64074;47.540;19.072;2023-05-29T10:29:56;100584.84;;;25.13;40.33
75497;BME280;64074;47.540;19.072;2023-05-29T10:33:27;100580.66;;;24.82;40.66
75497;BME280;64074;47.540;19.072;2023-05-29T10:36:44;100572.34;;;24.82;40.56
75497;BME280;64074;47.540;19.072;2023-05-29T10:40:06;100573.34;;;24.57;41.53
75497;BME280;64074;47.540;19.072;2023-05-29T10:43:33;100573.41;;;24.71;41.26
75497;BME280;64074;47.540;19.072;2023-05-29T10:50:01;100565.13;;;24.74;42.19
75497;BME280;64074;47.540;19.072;2023-05-29T10:53:18;100567.84;;;24.67;42.85
75497;BME280;64074;47.540;19.072;2023-05-29T10:56:31;100575.75;;;24.65;42.41
75497;BME280;64074;47.540;19.072;2023-05-29T11:00:02;100571.84;;;24.73;42.93
75497;BME280;64074;47.540;19.072;2023-05-29T11:03:31;100556.78;;;24.71;42.82
75497;BME280;64074;47.540;19.072;2023-05-29T11:06:43;100559.16;;;24.24;43.10
75497;BME280;64074;47.540;19.072;2023-05-29T11:10:13;100561.38;;;24.49;43.00
75497;BME280;64074;47.540;19.072;2023-05-29T11:13:35;100564.47;;;24.40;43.05
75497;BME280;64074;47.540;19.072;2023-05-29T11:16:47;100559.72;;;24.37;43.51
75497;BME280;64074;47.540;19.072;2023-05-29T11:19:51;100569.28;;;24.47;43.36
75497;BME280;64074;47.540;19.072;2023-05-29T11:23:07;100560.50;;;24.38;43.26
75497;BME280;64074;47.540;19.072;2023-05-29T11:26:23;100565.09;;;24.71;42.46
75497;BME280;64074;47.540;19.072;2023-05-29T11:29:32;100562.63;;;25.13;41.67
75497;BME280;64074;47.540;19.072;2023-05-29T11:32:47;100559.91;;;24.62;42.26
75497;BME280;64074;47.540;19.072;2023-05-29T11:35:59;100554.34;;;24.59;42.43
75497;BME280;64074;47.540;19.072;2023-05-29T11:39:08;100561.31;;;24.42;42.36
75497;BME280;64074;47.540;19.072;2023-05-29T11:42:18;100550.41;;;24.67;42.02
75497;BME280;64074;47.540;19.072;2023-05-29T11:45:26;100552.28;;;25.07;41.09
75497;BME280;64074;47.540;19.072;2023-05-29T11:48:45;100553.00;;;25.91;38.88
75497;BME280;64074;47.540;19.072;2023-05-29T11:52:12;100546.63;;;25.72;39.21
75497;BME280;64074;47.540;19.072;2023-05-29T11:55:26;100532.78;;;25.94;38.78
75497;BME280;64074;47.540;19.072;2023-05-29T11:58:58;100530.00;;;25.80;38.94
75497;BME280;64074;47.540;19.072;2023-05-29T12:02:20;100518.34;;;25.49;39.93
75497;BME280;64074;47.540;19.072;2023-05-29T12:05:47;100515.06;;;25.19;40.16
75497;BME280;64074;47.540;19.072;2023-05-29T12:09:05;100517.28;;;24.92;40.58
75497;BME280;64074;47.540;19.072;2023-05-29T12:12:25;100506.44;;;25.34;40.01
75497;BME280;64074;47.540;19.072;2023-05-29T12:15:48;100504.78;;;25.23;39.85
75497;BME280;64074;47.540;19.072;2023-05-29T12:19:08;100503.16;;;25.07;40.29
75497;BME280;64074;47.540;19.072;2023-05-29T12:22:36;100503.59;;;25.24;40.06
75497;BME280;64074;47.540;19.072;2023-05-29T12:25:52;100492.13;;;25.29;40.09
75497;BME280;64074;47.540;19.072;2023-05-29T12:29:06;100491.09;;;25.94;38.80
75497;BME280;64074;47.540;19.072;2023-05-29T12:32:13;100481.16;;;26.46;37.49
75497;BME280;64074;47.540;19.072;2023-05-29T12:35:24;100483.13;;;26.63;36.21
75497;BME280;64074;47.540;19.072;2023-05-29T12:38:49;100478.72;;;27.71;34.96
75497;BME280;64074;47.540;19.072;2023-05-29T12:42:04;100472.75;;;28.25;33.62
75497;BME280;64074;47.540;19.072;2023-05-29T12:45:18;100477.34;;;27.94;33.98
75497;BME280;64074;47.540;19.072;2023-05-29T12:48:27;100474.69;;;27.79;34.34
75497;BME280;64074;47.540;19.072;2023-05-29T12:52:05;100475.78;;;27.93;34.14
75497;BME280;64074;47.540;19.072;2023-05-29T12:55:32;100474.91;;;28.03;33.42
75497;BME280;64074;47.540;19.072;2023-05-29T12:58:50;100481.47;;;28.68;32.11
75497;BME280;64074;47.540;19.072;2023-05-29T13:02:11;100478.84;;;28.91;32.19
75497;BME280;64074;47.540;19.072;2023-05-29T13:05:32;100469.66;;;29.55;30.74
75497;BME280;64074;47.540;19.072;2023-05-29T13:08:42;100478.56;;;29.74;29.91
75497;BME280;64074;47.540;19.072;2023-05-29T13:12:11;100470.63;;;31.05;27.97
75497;BME280;64074;47.540;19.072;2023-05-29T13:15:38;100468.22;;;32.28;26.01
75497;BME280;64074;47.540;19.072;2023-05-29T13:19:01;100463.56;;;31.37;27.62
75497;BME280;64074;47.540;19.072;2023-05-29T13:22:23;100462.41;;;30.55;28.31
75497;BME280;64074;47.540;19.072;2023-05-29T13:25:44;100455.00;;;29.98;29.29
75497;BME280;64074;47.540;19.072;2023-05-29T13:28:52;100453.09;;;30.18;28.61
75497;BME280;64074;47.540;19.072;2023-05-29T13:32:02;100450.31;;;32.67;25.91
75497;BME280;64074;47.540;19.072;2023-05-29T13:35:20;100445.69;;;32.32;25.72
75497;BME280;64074;47.540;19.072;2023-05-29T13:38:36;100450.25;;;33.89;24.56
75497;BME280;64074;47.540;19.072;2023-05-29T13:41:39;100447.88;;;34.69;23.12
75497;BME280;64074;47.540;19.072;2023-05-29T13:44:42;100445.72;;;34.73;22.89
75497;BME280;64074;47.540;19.072;2023-05-29T13:47:51;100435.78;;;32.56;24.61
75497;BME280;64074;47.540;19.072;2023-05-29T13:51:05;100443.66;;;31.51;26.38
75497;BME280;64074;47.540;19.072;2023-05-29T13:54:26;100436.56;;;31.95;26.06
75497;BME280;64074;47.540;19.072;2023-05-29T13:57:51;100431.84;;;32.54;25.08
75497;BME280;64074;47.540;19.072;2023-05-29T14:01:08;100430.53;;;33.13;24.03
75497;BME280;64074;47.540;19.072;2023-05-29T14:04:32;100433.81;;;32.98;24.03
75497;BME280;64074;47.540;19.072;2023-05-29T14:07:55;100427.31;;;33.78;23.37
75497;BME280;64074;47.540;19.072;2023-05-29T14:11:05;100425.78;;;34.11;23.07
75497;BME280;64074;47.540;19.072;2023-05-29T14:14:08;100429.16;;;33.46;23.36
75497;BME280;64074;47.540;19.072;2023-05-29T14:17:18;100419.00;;;34.56;22.44
75497;BME280;64074;47.540;19.072;2023-05-29T14:20:43;100426.16;;;35.63;21.33
75497;BME280;64074;47.540;19.072;2023-05-29T14:23:57;100428.06;;;33.15;24.04
75497;BME280;64074;47.540;19.072;2023-05-29T14:27:06;100428.19;;;32.40;25.07
75497;BME280;64074;47.540;19.072;2023-05-29T14:30:35;100427.00;;;34.58;22.66
75497;BME280;64074;47.540;19.072;2023-05-29T14:34:02;100422.19;;;35.42;21.98
75497;BME280;64074;47.540;19.072;2023-05-29T14:37:06;100433.81;;;34.47;23.27
75497;BME280;64074;47.540;19.072;2023-05-29T14:40:09;100427.06;;;33.21;24.84
75497;BME280;64074;47.540;19.072;2023-05-29T14:43:19;100438.44;;;33.94;24.70
75497;BME280;64074;47.540;19.072;2023-05-29T14:46:32;100436.16;;;31.80;28.04
75497;BME280;64074;47.540;19.072;2023-05-29T14:49:37;100436.72;;;30.17;30.84
75497;BME280;64074;47.540;19.072;2023-05-29T14:52:47;100435.34;;;29.55;31.79
75497;BME280;64074;47.540;19.072;2023-05-29T14:56:00;100428.03;;;28.69;32.61
75497;BME280;64074;47.540;19.072;2023-05-29T14:59:16;100432.78;;;28.76;34.84
75497;BME280;64074;47.540;19.072;2023-05-29T15:02:43;100435.00;;;28.13;39.31
75497;BME280;64074;47.540;19.072;2023-05-29T15:05:56;100440.06;;;27.11;44.49
75497;BME280;64074;47.540;19.072;2023-05-29T15:09:01;100445.69;;;27.04;43.70
75497;BME280;64074;47.540;19.072;2023-05-29T15:12:10;100432.56;;;27.04;45.08
75497;BME280;64074;47.540;19.072;2023-05-29T15:15:28;100431.09;;;26.64;46.58
75497;BME280;64074;47.540;19.072;2023-05-29T15:18:57;100419.66;;;25.98;43.78
75497;BME280;64074;47.540;19.072;2023-05-29T15:22:06;100418.88;;;25.80;44.08
75497;BME280;64074;47.540;19.072;2023-05-29T15:25:22;100427.19;;;25.76;43.71
75497;BME280;64074;47.540;19.072;2023-05-29T15:28:50;100422.78;;;26.46;39.41
75497;BME280;64074;47.540;19.072;2023-05-29T15:32:07;100418.97;;;27.13;40.82
75497;BME280;64074;47.540;19.072;2023-05-29T15:35:17;100413.50;;;27.65;41.28
75497;BME280;64074;47.540;19.072;2023-05-29T15:38:28;100415.81;;;28.18;39.94
75497;BME280;64074;47.540;19.072;2023-05-29T15:41:35;100419.00;;;28.17;36.66
75497;BME280;64074;47.540;19.072;2023-05-29T15:44:44;100413.28;;;28.35;36.14
75497;BME280;64074;47.540;19.072;2023-05-29T15:47:49;100414.97;;;28.63;31.98
75497;BME280;64074;47.540;19.072;2023-05-29T15:50:53;100413.72;;;28.67;28.69
75497;BME280;64074;47.540;19.072;2023-05-29T15:54:02;100416.53;;;29.01;31.06
75497;BME280;64074;47.540;19.072;2023-05-29T15:57:12;100416.34;;;28.82;28.21
75497;BME280;64074;47.540;19.072;2023-05-29T16:00:22;100422.31;;;28.84;29.72
75497;BME280;64074;47.540;19.072;2023-05-29T16:03:25;100411.94;;;28.09;28.92
75497;BME280;64074;47.540;19.072;2023-05-29T16:06:32;100406.50;;;27.91;28.47
75497;BME280;64074;47.540;19.072;2023-05-29T16:09:36;100402.44;;;27.99;30.11
75497;BME280;64074;47.540;19.072;2023-05-29T16:12:46;100401.56;;;27.61;28.71
75497;BME280;64074;47.540;19.072;2023-05-29T16:15:58;100401.63;;;27.54;29.29
75497;BME280;64074;47.540;19.072;2023-05-29T16:19:18;100402.41;;;27.54;29.53
75497;BME280;64074;47.540;19.072;2023-05-29T16:22:41;100406.91;;;27.89;29.22
75497;BME280;64074;47.540;19.072;2023-05-29T16:26:02;100398.91;;;27.95;29.61
75497;BME280;64074;47.540;19.072;2023-05-29T16:29:16;100399.25;;;28.04;30.96
75497;BME280;64074;47.540;19.072;2023-05-29T16:32:26;100404.19;;;28.31;33.04
75497;BME280;64074;47.540;19.072;2023-05-29T16:36:02;100403.84;;;27.80;35.28
75497;BME280;64074;47.540;19.072;2023-05-29T16:39:30;100407.03;;;27.75;35.86
75497;BME280;64074;47.540;19.072;2023-05-29T16:42:57;100407.72;;;28.69;33.71
75497;BME280;64074;47.540;19.072;2023-05-29T16:46:12;100413.84;;;28.91;33.85
75497;BME280;64074;47.540;19.072;2023-05-29T16:49:36;100410.19;;;28.22;34.45
75497;BME280;64074;47.540;19.072;2023-05-29T16:52:53;100414.16;;;28.28;34.62
75497;BME280;64074;47.540;19.072;2023-05-29T16:55:57;100418.16;;;28.27;34.77
75497;BME280;64074;47.540;19.072;2023-05-29T16:59:04;100419.06;;;27.62;35.67
75497;BME280;64074;47.540;19.072;2023-05-29T17:02:15;100411.06;;;28.15;34.96
75497;BME280;64074;47.540;19.072;2023-05-29T17:05:38;100407.03;;;28.20;34.99